Terminal Aerodrome Forecast
Issued by NWS

Home | Current Version | Previous Version | Text Only | Print | Product List | Glossary On
Versions: 1 2 3 4 5 6 7 8 9 10 11 12 13 14 15 16 17
000
FTUS43 KEAX 270317 AAA
TAFSTJ
TAF AMD
KSTJ 270317Z 2703/2724 02009KT P6SM -SHRA SCT020 BKN040
     FM270600 01006KT 4SM -SHRA BR OVC015
      TEMPO 2707/2711 3SM -SHRA BR OVC009
     FM271600 36009KT P6SM OVC018
     FM272300 34008KT P6SM SCT025=

USA.gov is the U.S. government's official web portal to all federal, state and local government web resources and services.